createdAt,value
2019-02-27T00:00:44.040Z,55.50
2019-02-27T00:03:12.662Z,56.00
2019-02-27T00:05:41.708Z,55.90
2019-02-27T00:08:10.982Z,55.90
2019-02-27T00:10:39.891Z,55.80
2019-02-27T00:13:08.366Z,55.90
2019-02-27T00:15:37.961Z,56.30
2019-02-27T00:18:07.010Z,56.90
2019-02-27T00:20:37.036Z,57.00
2019-02-27T00:23:05.876Z,56.90
2019-02-27T00:25:36.102Z,56.60
2019-02-27T00:28:04.519Z,56.10
2019-02-27T00:30:32.957Z,56.00
2019-02-27T00:33:01.380Z,56.30
2019-02-27T00:35:29.774Z,55.70
2019-02-27T00:37:58.215Z,56.00
2019-02-27T00:40:26.614Z,56.10
2019-02-27T00:42:55.057Z,56.00
2019-02-27T00:45:23.533Z,56.20
2019-02-27T00:47:53.286Z,56.50
2019-02-27T00:50:22.279Z,56.90
2019-02-27T00:52:51.651Z,57.30
2019-02-27T00:55:20.177Z,57.40
2019-02-27T00:57:48.582Z,58.10
2019-02-27T01:00:18.392Z,57.90
2019-02-27T01:02:46.849Z,57.80
2019-02-27T01:05:15.527Z,57.40
2019-02-27T01:07:43.950Z,57.50
2019-02-27T01:10:12.996Z,56.70
2019-02-27T01:12:41.504Z,56.60
2019-02-27T01:15:11.745Z,57.00
2019-02-27T01:17:40.169Z,57.30
2019-02-27T01:20:13.787Z,57.30
2019-02-27T01:22:42.267Z,57.50
2019-02-27T01:25:10.775Z,57.40
2019-02-27T01:27:39.182Z,57.10
2019-02-27T01:30:10.661Z,57.30
2019-02-27T01:32:39.378Z,57.80
2019-02-27T01:35:09.829Z,58.20
2019-02-27T01:37:38.241Z,57.50
2019-02-27T01:40:10.084Z,57.50
2019-02-27T01:42:38.493Z,57.40
2019-02-27T01:45:09.903Z,57.30
2019-02-27T01:47:38.699Z,57.60
2019-02-27T01:50:30.401Z,57.60
2019-02-27T01:52:58.816Z,57.70
2019-02-27T01:55:27.263Z,58.20
2019-02-27T01:57:55.676Z,58.10
2019-02-27T02:00:24.145Z,58.50
2019-02-27T02:02:52.863Z,58.20
2019-02-27T02:05:26.111Z,57.80
2019-02-27T02:07:51.812Z,57.90
2019-02-27T02:10:20.225Z,58.20
2019-02-27T02:12:51.873Z,57.90
2019-02-27T02:15:45.414Z,57.50
2019-02-27T02:18:25.745Z,57.80
2019-02-27T02:21:09.337Z,58.40
2019-02-27T02:24:07.901Z,59.40
2019-02-27T02:26:50.795Z,60.00
2019-02-27T02:29:41.564Z,60.10
2019-02-27T02:32:30.754Z,59.50
2019-02-27T02:35:30.746Z,59.10
2019-02-27T02:38:20.265Z,59.20
2019-02-27T02:41:27.918Z,59.10
2019-02-27T02:44:05.373Z,59.20
2019-02-27T02:46:44.888Z,59.30
2019-02-27T02:49:15.669Z,59.10
2019-02-27T02:51:56.222Z,58.50
2019-02-27T02:54:45.909Z,58.30
2019-02-27T02:57:19.938Z,58.10
2019-02-27T02:59:51.306Z,58.40
2019-02-27T03:02:40.997Z,59.40
2019-02-27T03:05:41.321Z,59.80
2019-02-27T03:08:21.141Z,60.00
2019-02-27T03:10:58.379Z,60.00
2019-02-27T03:13:41.525Z,59.90
2019-02-27T03:16:14.599Z,59.70
2019-02-27T03:18:58.116Z,60.10
2019-02-27T03:21:52.185Z,61.10
2019-02-27T03:24:27.907Z,60.70
2019-02-27T03:27:08.385Z,60.00
2019-02-27T03:29:51.978Z,60.00
2019-02-27T03:32:21.783Z,59.50
2019-02-27T03:35:15.846Z,59.40
2019-02-27T03:37:52.933Z,59.30
2019-02-27T03:40:39.550Z,59.60
2019-02-27T03:43:32.354Z,60.10
2019-02-27T03:46:24.477Z,60.30
2019-02-27T03:49:10.949Z,60.00
2019-02-27T03:52:02.135Z,59.80
2019-02-27T03:54:36.302Z,60.10
2019-02-27T03:57:25.669Z,60.20
2019-02-27T04:00:06.022Z,60.00
2019-02-27T04:03:00.119Z,60.10
2019-02-27T04:05:31.616Z,59.90
2019-02-27T04:08:22.597Z,59.90
2019-02-27T04:10:51.013Z,59.50
2019-02-27T04:13:19.502Z,59.50
2019-02-27T04:15:53.364Z,59.70
2019-02-27T04:18:17.466Z,60.00
2019-02-27T04:20:50.698Z,59.80
2019-02-27T04:23:17.466Z,60.10
2019-02-27T04:25:45.875Z,60.30
2019-02-27T04:28:14.277Z,61.50
2019-02-27T04:30:42.684Z,61.20
2019-02-27T04:33:11.092Z,61.80
2019-02-27T04:35:40.128Z,61.90
2019-02-27T04:38:08.691Z,62.50
2019-02-27T04:40:37.085Z,62.40
2019-02-27T04:43:05.511Z,62.00
2019-02-27T04:45:33.906Z,61.60
2019-02-27T04:48:02.325Z,61.70
2019-02-27T04:50:30.778Z,61.40
2019-02-27T04:52:59.198Z,61.50
2019-02-27T04:55:27.619Z,62.00
2019-02-27T04:57:56.067Z,62.20
2019-02-27T05:00:26.266Z,62.70
2019-02-27T05:02:54.614Z,62.50
2019-02-27T05:05:23.013Z,62.00
2019-02-27T05:07:54.081Z,61.70
2019-02-27T05:10:21.547Z,61.40
2019-02-27T05:12:49.961Z,60.70
2019-02-27T05:15:18.391Z,60.90
2019-02-27T05:17:46.822Z,61.10
2019-02-27T05:20:15.537Z,61.30
2019-02-27T05:22:43.950Z,61.80
2019-02-27T05:25:14.422Z,61.90
2019-02-27T05:27:42.777Z,62.20
2019-02-27T05:30:12.867Z,62.00
2019-02-27T05:32:41.340Z,61.20
2019-02-27T05:35:09.738Z,61.00
2019-02-27T05:37:39.238Z,60.00
2019-02-27T05:40:09.779Z,59.50
2019-02-27T05:42:38.981Z,58.80
2019-02-27T05:45:10.917Z,59.60
2019-02-27T05:47:39.395Z,60.20
2019-02-27T05:50:12.269Z,60.20
2019-02-27T05:52:40.718Z,59.90
2019-02-27T05:55:09.130Z,60.30
2019-02-27T05:57:37.556Z,60.40
2019-02-27T06:00:09.049Z,60.00
2019-02-27T06:02:37.461Z,60.10
2019-02-27T06:05:06.420Z,60.60
2019-02-27T06:07:34.834Z,60.70
2019-02-27T06:10:04.187Z,60.00
2019-02-27T06:12:32.725Z,60.20
2019-02-27T06:15:01.179Z,60.30
2019-02-27T06:17:29.617Z,59.80
2019-02-27T06:19:58.029Z,59.70
2019-02-27T06:22:27.292Z,59.80
2019-02-27T06:24:56.620Z,60.30
2019-02-27T06:27:25.025Z,60.90
2019-02-27T06:29:56.596Z,61.00
2019-02-27T06:32:23.597Z,60.70
2019-02-27T06:34:52.023Z,60.30
2019-02-27T06:37:20.419Z,59.80
2019-02-27T06:39:48.849Z,60.00
2019-02-27T06:42:17.342Z,60.20
2019-02-27T06:44:45.887Z,60.00
2019-02-27T06:47:14.282Z,59.80
2019-02-27T06:49:42.717Z,59.20
2019-02-27T06:52:11.495Z,59.20
2019-02-27T06:54:39.969Z,59.00
2019-02-27T06:57:08.462Z,58.60
2019-02-27T06:59:36.862Z,58.40
2019-02-27T07:02:05.310Z,57.30
2019-02-27T07:04:36.403Z,56.90
2019-02-27T07:07:03.909Z,56.70
2019-02-27T07:09:32.377Z,56.10
2019-02-27T07:12:00.804Z,56.10
2019-02-27T07:14:29.210Z,55.40
2019-02-27T07:16:57.905Z,54.90
2019-02-27T07:19:26.413Z,54.60
2019-02-27T07:21:54.870Z,54.30
2019-02-27T07:24:23.290Z,53.70
2019-02-27T07:26:51.708Z,53.30
2019-02-27T07:29:21.907Z,53.40
2019-02-27T07:31:52.109Z,52.70
2019-02-27T07:34:20.685Z,51.60
2019-02-27T07:36:49.111Z,50.60
2019-02-27T07:39:17.557Z,49.30
2019-02-27T07:41:45.990Z,48.40
2019-02-27T07:44:14.444Z,47.70
2019-02-27T07:46:42.858Z,46.10
2019-02-27T07:49:11.290Z,45.90
2019-02-27T07:51:39.689Z,44.40
2019-02-27T07:54:08.130Z,42.70
2019-02-27T07:56:36.527Z,41.60
2019-02-27T07:59:05.061Z,41.00
2019-02-27T08:01:43.237Z,40.30
2019-02-27T08:04:03.759Z,38.80
2019-02-27T08:06:34.984Z,38.10
2019-02-27T08:09:02.497Z,36.70
2019-02-27T08:11:30.922Z,36.20
2019-02-27T08:14:00.793Z,36.20
2019-02-27T08:16:29.886Z,34.50
2019-02-27T08:18:58.811Z,34.30
2019-02-27T08:21:27.242Z,32.70
2019-02-27T08:23:55.633Z,33.00
2019-02-27T08:26:24.080Z,33.10
2019-02-27T08:28:52.498Z,32.50
2019-02-27T08:31:20.978Z,32.90
2019-02-27T08:33:49.421Z,33.10
2019-02-27T08:36:17.833Z,32.10
2019-02-27T08:38:46.353Z,32.30
2019-02-27T08:41:14.766Z,31.50
2019-02-27T08:43:43.228Z,31.70
2019-02-27T08:46:11.737Z,31.20
2019-02-27T08:48:40.142Z,31.60
2019-02-27T08:51:08.860Z,32.00
2019-02-27T08:53:37.697Z,31.30
2019-02-27T08:56:06.197Z,30.90
2019-02-27T08:58:34.676Z,31.80
2019-02-27T09:01:04.660Z,30.60
2019-02-27T09:03:36.186Z,31.30
2019-02-27T09:06:03.345Z,30.30
2019-02-27T09:08:31.777Z,30.80
2019-02-27T09:11:05.369Z,30.50
2019-02-27T09:13:30.401Z,30.30
2019-02-27T09:15:58.860Z,28.70
2019-02-27T09:18:27.282Z,28.70
2019-02-27T09:20:55.717Z,28.60
2019-02-27T09:23:24.457Z,28.70
2019-02-27T09:26:12.321Z,27.70
2019-02-27T09:28:44.228Z,27.50
2019-02-27T09:31:12.173Z,26.90
2019-02-27T09:33:41.127Z,26.40
2019-02-27T09:36:10.372Z,25.30
2019-02-27T09:38:39.490Z,25.10
2019-02-27T09:41:12.171Z,24.80
2019-02-27T09:43:38.151Z,24.60
2019-02-27T09:46:06.619Z,25.30
2019-02-27T09:48:35.031Z,24.90
2019-02-27T09:51:03.475Z,24.80
2019-02-27T09:53:34.017Z,23.70
2019-02-27T09:56:02.079Z,23.70
2019-02-27T09:58:30.585Z,23.60
2019-02-27T10:01:03.145Z,23.50
2019-02-27T10:03:32.912Z,23.90
2019-02-27T10:06:01.442Z,23.70
2019-02-27T10:08:29.973Z,23.40
2019-02-27T10:10:58.426Z,22.40
2019-02-27T10:13:26.860Z,22.20
2019-02-27T10:16:00.198Z,21.60
2019-02-27T10:18:25.568Z,21.40
2019-02-27T10:20:55.662Z,21.50
2019-02-27T10:23:24.429Z,21.10
2019-02-27T10:25:53.251Z,20.90
2019-02-27T10:28:21.833Z,20.40
2019-02-27T10:30:50.875Z,19.50
2019-02-27T10:33:19.451Z,18.90
2019-02-27T10:35:48.232Z,19.90
2019-02-27T10:38:16.678Z,19.50
2019-02-27T10:40:46.058Z,18.60
2019-02-27T10:43:15.134Z,18.50
2019-02-27T10:45:48.216Z,17.90
2019-02-27T10:48:14.022Z,18.70
2019-02-27T10:50:42.478Z,18.00
2019-02-27T10:53:11.214Z,19.00
2019-02-27T10:55:39.645Z,19.00
2019-02-27T10:58:13.008Z,19.10
2019-02-27T11:00:38.220Z,17.80
2019-02-27T11:03:06.660Z,17.50
2019-02-27T11:05:39.941Z,17.20
2019-02-27T11:08:08.361Z,17.60
2019-02-27T11:10:36.793Z,17.80
2019-02-27T11:13:06.698Z,17.10
2019-02-27T11:15:35.571Z,16.90
2019-02-27T11:18:05.419Z,17.00
2019-02-27T11:20:34.530Z,16.90
2019-02-27T11:23:06.431Z,16.10
2019-02-27T11:25:33.317Z,15.60
2019-02-27T11:28:01.857Z,16.10
2019-02-27T11:30:35.685Z,16.60
2019-02-27T11:33:03.104Z,16.00
2019-02-27T11:35:31.588Z,15.70
2019-02-27T11:38:00.089Z,15.40
2019-02-27T11:40:28.921Z,15.50
2019-02-27T11:42:57.351Z,16.10
2019-02-27T11:45:25.845Z,15.70
2019-02-27T11:47:54.338Z,15.90
2019-02-27T11:50:22.750Z,16.20
2019-02-27T11:52:51.649Z,16.00
2019-02-27T11:55:21.896Z,16.40
2019-02-27T11:57:50.368Z,16.50
2019-02-27T12:00:27.931Z,16.50
2019-02-27T12:02:56.798Z,16.40
2019-02-27T12:05:30.784Z,16.90
2019-02-27T12:07:56.308Z,17.20
2019-02-27T12:10:32.115Z,17.40
2019-02-27T12:13:01.320Z,17.50
2019-02-27T12:15:30.159Z,17.70
2019-02-27T12:18:00.623Z,17.40
2019-02-27T12:20:28.790Z,16.80
2019-02-27T12:22:57.286Z,17.00
2019-02-27T12:25:28.987Z,17.40
2019-02-27T12:27:56.843Z,18.10
2019-02-27T12:30:30.709Z,18.00
2019-02-27T12:32:59.149Z,18.10
2019-02-27T12:35:30.073Z,18.10
2019-02-27T12:37:58.533Z,18.10
2019-02-27T12:40:27.066Z,18.00
2019-02-27T12:42:55.945Z,18.00
2019-02-27T12:45:27.108Z,18.30
2019-02-27T12:47:56.959Z,18.00
2019-02-27T12:50:30.799Z,17.50
2019-02-27T12:52:57.325Z,17.50
2019-02-27T12:55:28.299Z,17.60
2019-02-27T12:57:56.805Z,17.60
2019-02-27T13:00:33.462Z,17.50
2019-02-27T13:03:01.942Z,17.70
2019-02-27T13:05:30.434Z,17.60
2019-02-27T13:07:58.925Z,17.80
2019-02-27T13:10:33.003Z,18.20
2019-02-27T13:12:58.143Z,18.10
2019-02-27T13:15:29.001Z,17.70
2019-02-27T13:18:00.066Z,17.80
2019-02-27T13:20:34.307Z,17.90
2019-02-27T13:23:05.108Z,18.30
2019-02-27T13:25:32.889Z,18.30
2019-02-27T13:28:01.297Z,17.90
2019-02-27T13:30:29.726Z,18.20
2019-02-27T13:33:00.625Z,17.90
2019-02-27T13:35:28.881Z,18.00
2019-02-27T13:37:57.523Z,17.80
2019-02-27T13:40:27.310Z,17.70
2019-02-27T13:42:55.817Z,17.80
2019-02-27T13:45:26.237Z,17.50
2019-02-27T13:47:54.970Z,17.60
2019-02-27T13:50:26.490Z,17.80
2019-02-27T13:52:54.194Z,18.00
2019-02-27T13:55:23.684Z,18.00
2019-02-27T13:57:52.238Z,17.90
2019-02-27T14:00:31.617Z,17.80
2019-02-27T14:03:00.041Z,17.90
2019-02-27T14:05:29.504Z,17.50
2019-02-27T14:07:59.065Z,17.60
2019-02-27T14:10:34.137Z,17.70
2019-02-27T14:13:02.661Z,17.70
2019-02-27T14:15:31.817Z,18.20
2019-02-27T14:18:00.441Z,17.70
2019-02-27T14:20:29.188Z,17.40
2019-02-27T14:22:58.216Z,17.40
2019-02-27T14:25:34.076Z,17.40
2019-02-27T14:28:02.499Z,17.40
2019-02-27T14:30:36.657Z,17.30
2019-02-27T14:33:05.232Z,17.50
2019-02-27T14:35:36.198Z,18.00
2019-02-27T14:38:04.249Z,17.80
2019-02-27T14:40:37.758Z,17.90
2019-02-27T14:43:02.844Z,18.20
2019-02-27T14:45:31.268Z,18.10
2019-02-27T14:48:00.039Z,17.80
2019-02-27T14:50:33.492Z,17.80
2019-02-27T14:52:58.589Z,17.80
2019-02-27T14:55:27.017Z,17.90
2019-02-27T14:57:55.503Z,18.50
2019-02-27T15:00:32.196Z,18.10
2019-02-27T15:03:00.623Z,17.90
2019-02-27T15:05:29.065Z,18.40
2019-02-27T15:07:57.541Z,18.10
2019-02-27T15:10:26.096Z,18.20
2019-02-27T15:12:55.590Z,18.00
2019-02-27T15:15:29.516Z,18.50
2019-02-27T15:17:58.099Z,18.80
2019-02-27T15:20:27.856Z,18.40
2019-02-27T15:22:56.344Z,18.20
2019-02-27T15:25:27.185Z,18.00
2019-02-27T15:27:58.370Z,18.20
2019-02-27T15:30:28.405Z,18.10
2019-02-27T15:32:56.801Z,18.30
2019-02-27T15:35:25.219Z,18.20
2019-02-27T15:37:53.730Z,18.20
2019-02-27T15:40:30.193Z,18.40
2019-02-27T15:42:59.063Z,18.40
2019-02-27T15:45:28.832Z,18.50
2019-02-27T15:47:57.377Z,18.50
2019-02-27T15:50:31.524Z,18.50
2019-02-27T15:53:00.316Z,18.60
2019-02-27T15:55:33.046Z,18.30
2019-02-27T15:57:59.127Z,18.30
2019-02-27T16:00:28.630Z,18.30
2019-02-27T16:02:57.633Z,18.40
2019-02-27T16:05:30.210Z,18.60
2019-02-27T16:07:56.261Z,19.20
2019-02-27T16:10:29.257Z,18.80
2019-02-27T16:13:00.949Z,18.80
2019-02-27T16:15:28.133Z,18.80
2019-02-27T16:17:56.538Z,18.90
2019-02-27T16:20:26.195Z,19.10
2019-02-27T16:22:54.746Z,19.00
2019-02-27T16:25:25.493Z,19.00
2019-02-27T16:27:54.310Z,19.00
2019-02-27T16:30:33.196Z,19.10
2019-02-27T16:33:01.661Z,19.20
2019-02-27T16:35:30.177Z,19.20
2019-02-27T16:37:58.683Z,19.40
2019-02-27T16:40:28.332Z,19.50
2019-02-27T16:42:56.846Z,19.60
2019-02-27T16:45:37.099Z,19.70
2019-02-27T16:48:06.002Z,19.80
2019-02-27T16:50:34.563Z,20.10
2019-02-27T16:53:03.047Z,20.10
2019-02-27T16:55:36.006Z,20.20
2019-02-27T16:58:02.053Z,20.40
2019-02-27T17:00:36.097Z,20.60
2019-02-27T17:03:04.665Z,20.70
2019-02-27T17:05:33.077Z,20.80
2019-02-27T17:08:02.702Z,21.00
2019-02-27T17:10:33.581Z,21.10
2019-02-27T17:13:02.081Z,21.30
2019-02-27T17:15:34.322Z,21.30
2019-02-27T17:18:01.384Z,21.60
2019-02-27T17:20:30.241Z,21.90
2019-02-27T17:22:58.659Z,22.30
2019-02-27T17:25:29.945Z,22.40
2019-02-27T17:27:57.228Z,22.60
2019-02-27T17:30:28.050Z,22.90
2019-02-27T17:32:56.553Z,23.20
2019-02-27T17:35:25.070Z,23.40
2019-02-27T17:37:53.823Z,23.50
2019-02-27T17:40:22.630Z,23.60
2019-02-27T17:42:53.452Z,23.80
2019-02-27T17:45:25.683Z,24.10
2019-02-27T17:47:54.130Z,24.30
2019-02-27T17:50:22.577Z,24.30
2019-02-27T17:52:51.925Z,24.60
2019-02-27T17:55:20.420Z,24.80
2019-02-27T17:57:48.853Z,25.20
2019-02-27T18:00:24.013Z,25.50
2019-02-27T18:02:52.446Z,25.60
2019-02-27T18:05:22.345Z,25.90
2019-02-27T18:07:51.150Z,26.30
2019-02-27T18:10:19.605Z,26.40
2019-02-27T18:12:48.133Z,26.60
2019-02-27T18:15:20.480Z,26.80
2019-02-27T18:17:49.321Z,26.90
2019-02-27T18:20:17.800Z,27.00
2019-02-27T18:22:49.407Z,27.40
2019-02-27T18:25:18.126Z,27.30
2019-02-27T18:27:47.920Z,27.60
2019-02-27T18:30:24.819Z,28.30
2019-02-27T18:32:53.313Z,28.20
2019-02-27T18:35:21.747Z,28.50
2019-02-27T18:37:53.603Z,28.60
2019-02-27T18:40:20.780Z,29.00
2019-02-27T18:42:49.189Z,30.00
2019-02-27T18:45:25.928Z,29.80
2019-02-27T18:47:54.344Z,30.00
2019-02-27T18:50:24.877Z,30.10
2019-02-27T18:52:52.966Z,30.60
2019-02-27T18:55:21.441Z,31.10
2019-02-27T18:57:49.876Z,31.60
2019-02-27T19:00:28.945Z,32.00
2019-02-27T19:03:00.006Z,32.20
2019-02-27T19:05:28.502Z,32.50
2019-02-27T19:07:56.989Z,32.90
2019-02-27T19:10:26.008Z,33.20
2019-02-27T19:12:54.504Z,34.30
2019-02-27T19:15:25.008Z,34.30
2019-02-27T19:17:53.799Z,34.60
2019-02-27T19:20:37.408Z,34.70
2019-02-27T19:23:05.992Z,34.70
2019-02-27T19:25:35.425Z,35.00
2019-02-27T19:28:04.165Z,35.70
2019-02-27T19:30:34.617Z,35.30
2019-02-27T19:33:02.825Z,35.20
2019-02-27T19:35:31.251Z,35.50
2019-02-27T19:37:59.720Z,35.90
2019-02-27T19:40:30.584Z,36.20
2019-02-27T19:43:03.792Z,36.30
2019-02-27T19:45:32.313Z,36.10
2019-02-27T19:48:00.827Z,36.50
2019-02-27T19:50:29.779Z,36.50
2019-02-27T19:53:03.353Z,36.70
2019-02-27T19:55:28.399Z,37.30
2019-02-27T19:57:56.820Z,37.50
2019-02-27T20:00:35.536Z,37.90
2019-02-27T20:03:04.623Z,37.90
2019-02-27T20:05:33.055Z,37.80
2019-02-27T20:08:02.457Z,38.20
2019-02-27T20:10:33.307Z,38.50
2019-02-27T20:13:01.375Z,38.50
2019-02-27T20:15:29.873Z,38.70
2019-02-27T20:17:58.746Z,38.80
2019-02-27T20:20:27.227Z,39.00
2019-02-27T20:22:55.657Z,39.40
2019-02-27T20:25:26.317Z,39.50
2019-02-27T20:27:57.987Z,39.30
2019-02-27T20:30:25.067Z,39.50
2019-02-27T20:32:53.925Z,39.90
2019-02-27T20:35:22.343Z,40.40
2019-02-27T20:37:51.105Z,40.70
2019-02-27T20:40:20.585Z,41.30
2019-02-27T20:42:50.419Z,41.90
2019-02-27T20:45:20.509Z,42.20
2019-02-27T20:47:48.993Z,42.40
2019-02-27T20:50:40.938Z,42.50
2019-02-27T20:53:11.950Z,42.60
2019-02-27T20:55:40.407Z,43.10
2019-02-27T20:58:08.918Z,43.10
2019-02-27T21:00:37.381Z,43.30
2019-02-27T21:03:06.106Z,43.30
2019-02-27T21:05:34.549Z,43.70
2019-02-27T21:08:02.958Z,43.70
2019-02-27T21:10:33.229Z,43.80
2019-02-27T21:13:01.718Z,44.00
2019-02-27T21:15:32.499Z,43.90
2019-02-27T21:18:00.842Z,43.80
2019-02-27T21:20:29.387Z,43.50
2019-02-27T21:22:59.866Z,43.70
2019-02-27T21:25:28.037Z,44.20
2019-02-27T21:27:56.498Z,43.90
2019-02-27T21:30:25.905Z,43.90
2019-02-27T21:32:54.689Z,44.00
2019-02-27T21:35:28.919Z,43.80
2019-02-27T21:37:53.522Z,44.30
2019-02-27T21:40:22.498Z,43.80
2019-02-27T21:42:51.878Z,44.30
2019-02-27T21:45:24.296Z,44.40
2019-02-27T21:47:53.372Z,44.40
2019-02-27T21:50:23.526Z,44.70
2019-02-27T21:52:54.421Z,44.50
2019-02-27T21:55:22.133Z,44.60
2019-02-27T21:57:50.615Z,44.60
2019-02-27T22:00:27.806Z,44.70
2019-02-27T22:02:57.569Z,45.10
2019-02-27T22:05:26.468Z,45.40
2019-02-27T22:07:54.911Z,45.70
2019-02-27T22:10:23.789Z,46.00
2019-02-27T22:12:52.293Z,46.00
2019-02-27T22:15:30.739Z,45.90
2019-02-27T22:17:59.167Z,46.20
2019-02-27T22:20:27.728Z,46.70
2019-02-27T22:22:56.158Z,46.50
2019-02-27T22:25:30.199Z,46.50
2019-02-27T22:27:54.914Z,46.80
2019-02-27T22:30:23.663Z,47.00
2019-02-27T22:32:52.061Z,46.90
2019-02-27T22:35:23.105Z,46.90
2019-02-27T22:37:52.666Z,47.00
2019-02-27T22:40:22.587Z,47.40
2019-02-27T22:42:51.091Z,47.60
2019-02-27T22:45:22.201Z,47.60
2019-02-27T22:47:54.020Z,47.70
2019-02-27T22:50:21.840Z,47.90
2019-02-27T22:52:54.233Z,48.20
2019-02-27T22:55:20.589Z,48.00
2019-02-27T22:57:48.996Z,47.90
2019-02-27T23:00:56.097Z,47.60
2019-02-27T23:03:27.857Z,47.00
2019-02-27T23:05:56.279Z,47.10
2019-02-27T23:08:24.871Z,46.90
2019-02-27T23:10:53.706Z,46.70
2019-02-27T23:13:22.266Z,46.50
2019-02-27T23:15:50.673Z,46.40
2019-02-27T23:18:19.134Z,46.10
2019-02-27T23:20:47.583Z,45.90
2019-02-27T23:23:15.982Z,45.90
2019-02-27T23:25:46.569Z,45.80
2019-02-27T23:28:14.595Z,45.50
2019-02-27T23:30:46.924Z,44.90
2019-02-27T23:33:14.043Z,44.80
2019-02-27T23:35:42.470Z,44.60
2019-02-27T23:38:10.876Z,44.40
2019-02-27T23:40:39.369Z,44.50
2019-02-27T23:43:07.769Z,44.40
2019-02-27T23:45:36.214Z,44.30
2019-02-27T23:48:04.769Z,44.40
2019-02-27T23:50:33.201Z,44.60
2019-02-27T23:53:01.611Z,44.60
2019-02-27T23:55:30.114Z,44.80
2019-02-27T23:57:58.595Z,45.00
